Time;durP1;ratioP1;P1;durP2;ratioP2;P2;SDS_P1;SDS_P2;PMS_P1;PMS_P2;Temp;Humidity;BMP_temperature;BMP_pressure;BME280_temperature;BME280_humidity;BME280_pressure;Samples;Min_cycle;Max_cycle;Signal;HPM_P1;HPM_P2
2022/10/28 04:22:55;;;;;;;3.17;2.00;;;;;;;12.45;100.00;100766.72;5089122;28;20332;-69
2022/10/28 04:25:21;;;;;;;3.92;2.20;;;;;;;12.43;100.00;100769.56;5088897;28;20040;-70
2022/10/28 04:27:47;;;;;;;2.33;2.13;;;;;;;12.42;100.00;100772.41;5089120;28;20032;-69
2022/10/28 04:30:13;;;;;;;3.35;2.42;;;;;;;12.40;100.00;100785.13;5088553;28;20039;-70
2022/10/28 04:32:43;;;;;;;6.72;2.50;;;;;;;12.38;100.00;100787.09;5088796;28;20045;-70
2022/10/28 04:35:09;;;;;;;4.55;2.60;;;;;;;12.42;100.00;100788.44;5089072;28;20035;-70
2022/10/28 04:37:34;;;;;;;4.43;2.45;;;;;;;12.41;100.00;100795.63;5088782;28;20046;-69
2022/10/28 04:40:00;;;;;;;5.90;2.33;;;;;;;12.46;100.00;100795.13;5088628;28;20036;-70
2022/10/28 04:42:27;;;;;;;5.03;2.00;;;;;;;12.44;100.00;100789.94;5088348;28;20558;-69
2022/10/28 04:44:52;;;;;;;4.88;2.35;;;;;;;12.47;100.00;100792.28;5087656;28;20059;-69
2022/10/28 04:47:17;;;;;;;4.20;2.35;;;;;;;12.47;100.00;100802.97;5068352;28;20179;-69
2022/10/28 04:49:43;;;;;;;4.78;2.65;;;;;;;12.48;100.00;100798.44;5068479;28;20465;-70
2022/10/28 04:52:09;;;;;;;4.18;2.35;;;;;;;12.45;100.00;100790.75;5067752;28;20449;-70
2022/10/28 04:54:35;;;;;;;4.57;2.55;;;;;;;12.44;100.00;100794.44;5068132;28;20422;-70
2022/10/28 04:57:01;;;;;;;3.08;1.80;;;;;;;12.34;100.00;100793.81;5068003;28;20044;-70
2022/10/28 04:59:26;;;;;;;3.40;2.10;;;;;;;12.38;100.00;100801.28;5068180;28;20044;-70
2022/10/28 05:01:52;;;;;;;3.42;1.90;;;;;;;12.38;100.00;100803.97;5067854;28;20036;-70
2022/10/28 05:04:17;;;;;;;4.85;2.00;;;;;;;12.35;100.00;100812.34;5068015;28;20037;-69
2022/10/28 05:06:43;;;;;;;5.80;2.47;;;;;;;12.35;100.00;100820.34;5067941;28;20052;-70
2022/10/28 05:09:08;;;;;;;3.78;2.17;;;;;;;12.35;100.00;100819.53;5068071;28;20043;-70
2022/10/28 05:11:33;;;;;;;3.83;2.30;;;;;;;12.33;100.00;100816.19;5067898;28;20040;-70
2022/10/28 05:13:59;;;;;;;5.70;2.05;;;;;;;12.33;100.00;100810.84;5077090;28;20044;-68
2022/10/28 05:16:24;;;;;;;4.93;1.90;;;;;;;12.28;100.00;100814.03;5088006;28;20090;-72
2022/10/28 05:18:49;;;;;;;3.03;1.80;;;;;;;12.21;100.00;100813.03;5087980;28;20042;-72
2022/10/28 05:21:15;;;;;;;8.07;2.40;;;;;;;12.17;100.00;100806.38;5087559;28;20396;-71
2022/10/28 05:23:40;;;;;;;3.88;2.15;;;;;;;12.06;100.00;100812.06;5087827;28;20094;-71
2022/10/28 05:26:06;;;;;;;4.00;1.63;;;;;;;12.04;100.00;100814.06;5087851;28;20036;-71
2022/10/28 05:28:31;;;;;;;4.45;1.85;;;;;;;11.99;100.00;100819.06;5087932;28;20047;-71
2022/10/28 05:30:57;;;;;;;3.78;1.88;;;;;;;12.00;100.00;100805.56;5087068;28;20094;-71
2022/10/28 05:33:22;;;;;;;3.00;1.67;;;;;;;11.97;100.00;100784.53;5079166;28;20110;-72
2022/10/28 05:35:48;;;;;;;3.53;2.00;;;;;;;11.94;100.00;100785.72;5074220;28;20040;-72
2022/10/28 05:38:13;;;;;;;5.43;2.33;;;;;;;11.89;100.00;100795.25;5074159;28;20040;-73
2022/10/28 05:40:39;;;;;;;2.35;1.90;;;;;;;11.89;100.00;100792.56;5073701;28;20071;-71
2022/10/28 05:43:04;;;;;;;3.90;1.95;;;;;;;11.86;100.00;100799.06;5074006;28;20037;-71
2022/10/28 05:45:30;;;;;;;2.55;1.67;;;;;;;11.85;100.00;100801.91;5073965;28;20412;-72
2022/10/28 05:47:56;;;;;;;3.97;2.22;;;;;;;11.88;100.00;100786.41;5074116;28;20449;-72
2022/10/28 05:50:22;;;;;;;5.03;2.25;;;;;;;11.82;100.00;100791.56;5073634;28;20037;-72
2022/10/28 05:52:55;;;;;;;5.93;2.30;;;;;;;11.78;100.00;100809.72;5073732;28;20048;-72
2022/10/28 05:55:23;;;;;;;4.15;2.40;;;;;;;11.73;100.00;100806.69;5073619;28;20036;-71
2022/10/28 05:57:49;;;;;;;;;;;;;;;11.73;100.00;100796.03;5074122;28;20037;-72
2022/10/28 06:00:19;;;;;;;2.53;1.90;;;;;;;11.74;100.00;100799.56;5073317;28;19995;-71
2022/10/28 06:02:45;;;;;;;4.13;2.08;;;;;;;11.73;100.00;100788.03;5073706;28;20036;-65
2022/10/28 06:05:11;;;;;;;3.17;2.30;;;;;;;11.78;100.00;100790.19;5073529;28;20223;-64
2022/10/28 06:07:38;;;;;;;3.30;2.40;;;;;;;11.73;100.00;100788.03;5073563;28;20043;-64
2022/10/28 06:10:05;;;;;;;2.53;1.70;;;;;;;11.75;100.00;100788.72;5073208;28;20037;-64
2022/10/28 06:12:30;;;;;;;3.13;2.10;;;;;;;11.71;100.00;100787.38;5073321;28;20060;-67
2022/10/28 06:14:56;;;;;;;3.47;2.55;;;;;;;11.76;100.00;100808.22;5073431;28;20492;-65
2022/10/28 06:17:21;;;;;;;2.85;2.17;;;;;;;11.71;100.00;100808.72;5073216;28;20032;-65
2022/10/28 06:19:47;;;;;;;5.97;1.50;;;;;;;11.60;100.00;100803.69;5073122;28;20075;-65
2022/10/28 06:22:12;;;;;;;3.42;2.10;;;;;;;11.56;100.00;100800.56;5073004;28;20101;-65
2022/10/28 06:24:37;;;;;;;3.00;1.52;;;;;;;11.58;100.00;100803.88;5073109;28;20037;-65
2022/10/28 06:27:03;;;;;;;7.93;2.53;;;;;;;11.56;100.00;100811.22;5073044;28;20504;-65
2022/10/28 06:29:30;;;;;;;4.03;1.67;;;;;;;11.44;100.00;100809.03;5073171;28;20048;-65
2022/10/28 06:31:56;;;;;;;3.33;1.95;;;;;;;11.39;100.00;100820.19;5072820;28;20068;-65
2022/10/28 06:34:21;;;;;;;3.58;2.33;;;;;;;11.46;100.00;100817.69;5073099;28;20075;-63
2022/10/28 06:36:47;;;;;;;2.80;1.90;;;;;;;11.48;100.00;100816.56;5072947;28;20040;-65
2022/10/28 06:39:12;;;;;;;2.00;1.60;;;;;;;11.53;100.00;100814.22;5072950;28;20047;-64
2022/10/28 06:41:38;;;;;;;3.13;1.70;;;;;;;11.63;100.00;100822.06;5072321;28;20088;-65
2022/10/28 06:44:03;;;;;;;3.78;1.83;;;;;;;11.63;100.00;100820.22;5072206;28;20041;-65
2022/10/28 06:46:28;;;;;;;2.63;1.77;;;;;;;11.66;100.00;100825.22;5072313;28;20405;-65
2022/10/28 06:48:54;;;;;;;2.92;2.28;;;;;;;11.68;100.00;100833.09;5072719;28;20036;-65
2022/10/28 06:51:20;;;;;;;3.83;1.95;;;;;;;11.73;100.00;100841.41;5072337;28;20036;-64
2022/10/28 06:53:49;;;;;;;6.78;2.10;;;;;;;11.74;100.00;100843.09;5072595;28;20455;-65
2022/10/28 06:56:14;;;;;;;3.15;1.80;;;;;;;11.80;100.00;100838.91;5072540;28;20093;-65
2022/10/28 06:58:40;;;;;;;4.57;2.30;;;;;;;11.84;100.00;100841.09;5072501;28;20506;-64
2022/10/28 07:01:05;;;;;;;3.75;2.00;;;;;;;11.85;100.00;100849.94;5072162;28;20582;-64
2022/10/28 07:03:34;;;;;;;3.05;2.10;;;;;;;11.83;100.00;100844.78;5072362;28;20409;-65
2022/10/28 07:06:00;;;;;;;2.45;2.03;;;;;;;11.93;100.00;100857.94;5072317;28;20040;-65
2022/10/28 07:08:26;;;;;;;4.82;1.83;;;;;;;11.94;100.00;100855.13;5072378;28;20044;-64
2022/10/28 07:10:56;;;;;;;2.28;1.67;;;;;;;11.96;100.00;100857.63;5071884;28;20040;-62
2022/10/28 07:13:23;;;;;;;4.20;1.90;;;;;;;12.00;100.00;100863.44;5072310;28;20036;-64
2022/10/28 07:15:52;;;;;;;4.93;2.22;;;;;;;12.01;100.00;100860.63;5072166;28;20048;-64
2022/10/28 07:18:18;;;;;;;3.17;1.92;;;;;;;12.01;100.00;100862.47;5072038;28;20489;-64
2022/10/28 07:20:43;;;;;;;3.58;1.92;;;;;;;12.02;100.00;100854.28;5071611;28;20097;-65
2022/10/28 07:23:09;;;;;;;3.05;1.38;;;;;;;12.04;100.00;100860.28;5071999;28;20051;-65
2022/10/28 07:25:34;;;;;;;3.35;1.92;;;;;;;12.04;100.00;100864.78;5072000;28;20063;-64
2022/10/28 07:28:00;;;;;;;2.53;1.90;;;;;;;12.03;100.00;100863.97;5071982;28;20044;-65
2022/10/28 07:30:26;;;;;;;2.30;1.48;;;;;;;12.07;100.00;100853.81;5071661;28;20051;-65
2022/10/28 07:32:52;;;;;;;4.38;2.10;;;;;;;12.12;100.00;100857.59;5067076;28;20028;-65
2022/10/28 07:35:17;;;;;;;6.10;1.83;;;;;;;12.15;100.00;100851.13;5071338;28;20102;-65
2022/10/28 07:37:42;;;;;;;3.88;1.48;;;;;;;12.20;100.00;100859.47;5071571;28;20365;-64
2022/10/28 07:40:08;;;;;;;2.58;1.77;;;;;;;12.21;100.00;100864.63;5071287;28;20040;-65
2022/10/28 07:42:34;;;;;;;3.45;1.75;;;;;;;12.25;100.00;100861.59;5070889;28;20037;-64
2022/10/28 07:44:59;;;;;;;1.80;1.50;;;;;;;12.26;100.00;100865.94;5071655;28;20044;-65
2022/10/28 07:47:24;;;;;;;2.83;1.80;;;;;;;12.30;100.00;100872.63;5071341;28;20036;-65
2022/10/28 07:49:51;;;;;;;3.47;1.90;;;;;;;12.33;100.00;100870.47;5071111;28;20115;-65
2022/10/28 07:52:16;;;;;;;4.00;2.13;;;;;;;12.37;100.00;100876.28;5070515;28;20094;-66
2022/10/28 07:54:41;;;;;;;4.28;1.88;;;;;;;12.40;100.00;100873.28;5071559;28;20048;-65
2022/10/28 07:57:07;;;;;;;2.70;1.92;;;;;;;12.44;100.00;100871.91;5071092;28;20063;-65
2022/10/28 07:59:32;;;;;;;3.60;1.80;;;;;;;12.47;100.00;100864.41;5070955;28;20033;-65
2022/10/28 08:01:58;;;;;;;3.20;2.00;;;;;;;12.50;100.00;100864.06;5069108;28;20051;-65
2022/10/28 08:04:23;;;;;;;2.72;1.67;;;;;;;12.56;100.00;100870.56;5071332;28;20047;-64
2022/10/28 08:06:49;;;;;;;3.10;1.77;;;;;;;12.59;100.00;100875.59;5071228;28;20070;-64
2022/10/28 08:09:15;;;;;;;2.17;1.70;;;;;;;12.65;100.00;100879.38;5071427;28;20063;-65
2022/10/28 08:11:40;;;;;;;5.43;1.77;;;;;;;12.68;100.00;100877.22;5071061;28;20082;-64
2022/10/28 08:14:06;;;;;;;3.47;2.30;;;;;;;12.74;100.00;100897.09;5071518;28;20106;-65
2022/10/28 08:16:31;;;;;;;2.60;1.75;;;;;;;12.81;100.00;100876.66;5070691;28;20044;-65
2022/10/28 08:18:56;;;;;;;7.38;2.17;;;;;;;12.84;100.00;100879.00;5070942;28;20043;-65
2022/10/28 08:21:23;;;;;;;3.55;2.13;;;;;;;12.87;100.00;100861.78;5070765;28;20032;-65
2022/10/28 08:23:48;;;;;;;5.25;2.47;;;;;;;12.91;100.00;100858.59;5071346;28;20044;-66
2022/10/28 08:26:15;;;;;;;3.28;1.90;;;;;;;13.00;100.00;100870.09;5071073;28;20032;-65
2022/10/28 08:28:40;;;;;;;3.65;1.60;;;;;;;13.07;100.00;100857.69;5071242;28;20473;-65
2022/10/28 08:31:11;;;;;;;3.58;1.60;;;;;;;13.15;100.00;100860.31;5070886;28;20050;-65
2022/10/28 08:33:38;;;;;;;7.22;1.83;;;;;;;13.23;100.00;100864.81;5071242;28;20056;-65
2022/10/28 08:36:04;;;;;;;4.45;2.22;;;;;;;13.32;100.00;100852.25;5071202;28;20456;-65
2022/10/28 08:38:30;;;;;;;3.08;1.88;;;;;;;13.43;100.00;100858.03;5071044;28;20044;-64
2022/10/28 08:41:19;;;;;;;2.88;1.55;;;;;;;13.53;100.00;100863.13;5070904;28;20427;-65
2022/10/28 08:43:53;;;;;;;3.92;1.60;;;;;;;13.66;100.00;100871.41;5071182;28;20404;-65
2022/10/28 08:46:44;;;;;;;4.00;2.13;;;;;;;13.84;100.00;100884.50;5071013;28;20094;-65
2022/10/28 08:49:14;;;;;;;3.58;2.05;;;;;;;13.94;100.00;100870.84;5071032;28;20523;-65
2022/10/28 08:51:39;;;;;;;3.00;1.85;;;;;;;14.04;100.00;100876.81;5070552;28;20040;-64
2022/10/28 08:54:14;;;;;;;2.63;1.70;;;;;;;14.09;100.00;100871.75;5071018;28;20036;-65
2022/10/28 08:56:46;;;;;;;2.20;1.75;;;;;;;14.20;100.00;100871.28;5070905;28;20131;-63
2022/10/28 08:59:26;;;;;;;2.78;1.55;;;;;;;14.28;100.00;100873.94;5070891;28;20113;-65
2022/10/28 09:02:27;;;;;;;6.35;1.80;;;;;;;14.38;100.00;100870.97;5070003;28;20028;-63
2022/10/28 09:05:10;;;;;;;3.83;2.15;;;;;;;14.48;100.00;100860.03;5066052;28;20122;-65
2022/10/28 09:07:36;;;;;;;3.30;1.63;;;;;;;14.57;100.00;100859.75;5051670;28;20453;-65
2022/10/28 09:10:04;;;;;;;2.15;1.40;;;;;;;14.65;100.00;100853.44;5054566;28;20072;-64
2022/10/28 09:12:41;;;;;;;4.00;1.95;;;;;;;14.76;100.00;100839.59;5054318;28;20420;-65
2022/10/28 09:15:24;;;;;;;3.83;2.25;;;;;;;14.84;100.00;100831.44;5054465;28;20047;-65
2022/10/28 09:17:57;;;;;;;3.15;1.38;;;;;;;14.86;100.00;100833.91;5054463;28;20041;-64
2022/10/28 09:20:48;;;;;;;3.28;1.88;;;;;;;14.99;100.00;100841.31;5054090;28;20454;-64
2022/10/28 09:23:16;;;;;;;4.00;2.13;;;;;;;15.07;100.00;100841.22;5054292;28;20052;-64
2022/10/28 09:25:52;;;;;;;5.25;1.77;;;;;;;15.12;100.00;100844.16;5054260;28;20072;-64
2022/10/28 09:28:49;;;;;;;5.03;1.55;;;;;;;15.21;100.00;100837.66;5054296;28;20049;-64
2022/10/28 09:31:36;;;;;;;;;;;;;;;15.31;100.00;100856.97;5053861;28;20471;-65
2022/10/28 09:34:21;;;;;;;2.20;1.63;;;;;;;15.41;100.00;100859.34;5054088;28;19936;-64
2022/10/28 09:37:09;;;;;;;1.92;1.30;;;;;;;15.53;100.00;100857.84;5054146;28;20040;-64
2022/10/28 09:39:42;;;;;;;9.77;1.85;;;;;;;15.71;100.00;100862.78;5047262;28;20045;-65
2022/10/28 09:42:13;;;;;;;4.40;1.95;;;;;;;15.92;100.00;100883.44;5053738;28;20428;-65
2022/10/28 09:44:44;;;;;;;3.63;1.65;;;;;;;16.02;100.00;100873.19;5053989;28;20067;-65
2022/10/28 09:47:21;;;;;;;4.25;2.30;;;;;;;16.28;100.00;100875.25;5053952;28;20037;-65
2022/10/28 09:49:50;;;;;;;3.47;1.90;;;;;;;16.46;100.00;100864.84;5054191;28;20044;-64
2022/10/28 09:52:22;;;;;;;3.22;1.85;;;;;;;16.64;100.00;100855.47;5053512;28;20080;-65
2022/10/28 09:54:52;;;;;;;3.22;1.67;;;;;;;16.83;100.00;100854.75;5053834;28;20036;-65
2022/10/28 09:57:18;;;;;;;3.45;1.80;;;;;;;16.96;100.00;100859.38;5053553;28;20043;-65
2022/10/28 09:59:44;;;;;;;2.92;1.70;;;;;;;17.07;100.00;100870.38;5053914;28;20044;-64
2022/10/28 10:02:24;;;;;;;2.92;1.73;;;;;;;17.17;100.00;100875.41;5053391;28;20100;-65
2022/10/28 10:04:50;;;;;;;3.55;1.80;;;;;;;17.24;100.00;100862.78;5053657;28;20040;-64
2022/10/28 10:07:28;;;;;;;1.55;1.40;;;;;;;17.32;100.00;100861.78;5053525;28;20041;-65
2022/10/28 10:09:55;;;;;;;6.45;1.42;;;;;;;17.68;100.00;100866.03;5053730;28;20403;-65
2022/10/28 10:12:21;;;;;;;3.30;1.40;;;;;;;18.05;100.00;100870.84;5053237;28;20430;-65
2022/10/28 10:14:52;;;;;;;4.78;2.30;;;;;;;18.26;99.16;100866.28;5053463;28;20040;-65
2022/10/28 10:17:23;;;;;;;5.60;1.65;;;;;;;18.41;96.41;100865.03;5053409;28;20033;-65
2022/10/28 10:20:01;;;;;;;1.73;1.50;;;;;;;18.57;96.52;100860.22;5053163;28;20091;-65
2022/10/28 10:22:42;;;;;;;3.47;1.73;;;;;;;18.59;94.66;100860.84;5053238;28;20079;-65
2022/10/28 10:25:16;;;;;;;2.10;1.30;;;;;;;18.72;93.30;100865.41;5053263;28;20041;-65
2022/10/28 10:27:48;;;;;;;1.75;1.27;;;;;;;18.80;94.08;100865.19;5053632;28;20029;-65
2022/10/28 10:30:20;;;;;;;4.47;1.42;;;;;;;18.74;93.53;100857.94;5052805;28;20037;-64
2022/10/28 10:32:46;;;;;;;2.95;1.20;;;;;;;18.77;94.43;100849.41;5053151;28;20195;-66
2022/10/28 10:35:12;;;;;;;1.53;1.30;;;;;;;18.79;93.62;100855.44;5053008;28;20039;-66
2022/10/28 10:37:42;;;;;;;2.90;1.58;;;;;;;18.85;94.47;100850.00;5053100;28;20043;-66
2022/10/28 10:40:29;;;;;;;4.28;1.50;;;;;;;18.94;93.71;100854.13;5052844;28;20041;-65
2022/10/28 10:43:12;;;;;;;2.50;1.92;;;;;;;18.90;91.45;100855.59;5052819;28;20094;-65
2022/10/28 10:45:38;;;;;;;2.83;1.30;;;;;;;19.10;91.71;100857.38;5052830;28;20036;-64
2022/10/28 10:48:14;;;;;;;3.38;1.10;;;;;;;19.23;91.65;100855.47;5051665;28;20033;-65
2022/10/28 10:50:43;;;;;;;2.47;1.30;;;;;;;19.72;88.80;100850.41;5057849;28;20043;-66
2022/10/28 10:53:20;;;;;;;3.28;1.48;;;;;;;20.11;87.44;100853.88;5057896;28;20075;-65
2022/10/28 10:56:07;;;;;;;4.03;1.80;;;;;;;20.96;85.26;100856.75;5051408;28;20036;-64
2022/10/28 10:58:38;;;;;;;;;;;;;;;21.47;81.11;100848.19;5053080;28;20033;-64
2022/10/28 11:01:06;;;;;;;2.88;1.80;;;;;;;22.05;76.19;100839.38;5052320;28;19920;-64
2022/10/28 11:03:40;;;;;;;2.80;1.30;;;;;;;22.59;72.82;100845.53;5052529;28;20060;-64
2022/10/28 11:06:07;;;;;;;6.05;1.63;;;;;;;23.07;66.34;100836.22;5052587;28;20036;-64
2022/10/28 11:08:40;;;;;;;;;;;;;;;23.73;64.97;100832.03;5052852;28;20155;-63
2022/10/28 11:11:11;;;;;;;3.80;1.27;;;;;;;23.97;63.47;100826.44;5051934;28;19927;-65
2022/10/28 11:13:37;;;;;;;3.45;1.23;;;;;;;24.49;58.38;100821.53;5052748;28;20040;-65
2022/10/28 11:16:06;;;;;;;4.40;1.80;;;;;;;25.02;56.56;100821.94;5052294;28;20025;-65
2022/10/28 11:18:43;;;;;;;3.38;1.25;;;;;;;25.40;53.03;100810.91;5052373;28;20041;-64
2022/10/28 11:21:47;;;;;;;2.03;1.10;;;;;;;26.01;49.01;100821.56;5052075;28;20037;-65
2022/10/28 11:24:21;;;;;;;5.15;2.33;;;;;;;26.56;47.58;100812.13;5043936;28;20052;-65
2022/10/28 11:27:06;;;;;;;2.45;1.20;;;;;;;26.99;45.74;100812.81;5050741;28;20402;-65
2022/10/28 11:29:31;;;;;;;1.83;1.17;;;;;;;26.18;43.78;100805.03;5051945;28;20040;-65
2022/10/28 11:32:06;;;;;;;4.22;1.40;;;;;;;25.48;45.04;100806.06;5051106;28;20506;-65
2022/10/28 11:35:09;;;;;;;4.90;1.90;;;;;;;24.97;45.11;100800.88;5051842;28;20060;-65
2022/10/28 11:37:44;;;;;;;5.57;2.38;;;;;;;24.82;51.44;100798.00;5051747;28;20061;-65
2022/10/28 11:40:38;;;;;;;4.10;1.85;;;;;;;24.84;50.97;100798.53;5051653;28;20444;-64
2022/10/28 11:43:26;;;;;;;2.70;1.60;;;;;;;24.33;57.56;100806.06;5051331;28;20068;-63
2022/10/28 11:46:03;;;;;;;3.47;2.08;;;;;;;24.17;53.76;100802.25;5051854;28;20033;-61
2022/10/28 11:48:34;;;;;;;5.00;1.77;;;;;;;24.19;55.56;100802.00;5051807;28;20044;-64
2022/10/28 11:51:06;;;;;;;4.68;1.95;;;;;;;24.06;55.54;100806.75;5051349;28;20036;-63
2022/10/28 11:53:49;;;;;;;2.83;1.80;;;;;;;24.93;53.88;100794.31;5051574;28;20032;-64
2022/10/28 11:56:39;;;;;;;3.38;1.70;;;;;;;25.53;52.13;100793.31;5051676;28;20040;-64
2022/10/28 11:59:14;;;;;;;4.07;1.88;;;;;;;25.95;50.27;100800.78;5051612;28;20036;-64
2022/10/28 12:01:59;;;;;;;5.13;1.85;;;;;;;26.58;48.52;100792.72;5050952;28;20033;-62
2022/10/28 12:04:43;;;;;;;4.28;1.50;;;;;;;26.86;45.55;100805.94;5050667;28;20035;-65
2022/10/28 12:07:38;;;;;;;6.55;1.85;;;;;;;27.12;46.25;100801.41;5051727;28;20151;-64
2022/10/28 12:10:32;;;;;;;5.70;1.77;;;;;;;27.33;46.54;100809.69;5051205;28;20068;-65
2022/10/28 12:13:27;;;;;;;3.28;1.60;;;;;;;27.63;44.89;100798.75;5029272;28;20053;-63
2022/10/28 12:15:52;;;;;;;11.82;2.47;;;;;;;26.60;48.37;100796.81;5051102;28;20043;-63
2022/10/28 12:18:55;;;;;;;5.57;1.70;;;;;;;27.48;46.97;100790.53;5051091;28;20033;-64
2022/10/28 12:21:38;;;;;;;2.63;1.67;;;;;;;27.36;46.20;100776.28;5050373;28;20059;-64
2022/10/28 12:24:09;;;;;;;8.18;2.08;;;;;;;26.51;46.34;100776.56;5051570;28;20033;-64
2022/10/28 12:26:40;;;;;;;6.25;2.17;;;;;;;26.68;47.84;100788.13;5051677;28;20560;-62
2022/10/28 12:29:22;;;;;;;5.68;2.33;;;;;;;26.17;50.82;100785.09;5064437;28;20075;-63
2022/10/28 12:31:54;;;;;;;8.30;3.15;;;;;;;26.21;47.83;100778.03;5070230;28;20397;-64
2022/10/28 12:34:27;;;;;;;8.45;2.33;;;;;;;25.98;48.73;100775.69;5064613;28;20548;-64
2022/10/28 12:37:12;;;;;;;2.92;2.05;;;;;;;26.02;48.49;100757.72;5051076;28;20037;-64
2022/10/28 12:39:46;;;;;;;6.00;2.47;;;;;;;26.20;49.48;100760.00;5051106;28;20063;-64
2022/10/28 12:42:21;;;;;;;7.38;2.17;;;;;;;25.71;50.60;100752.00;5050370;28;20037;-64
2022/10/28 12:44:48;;;;;;;8.88;2.35;;;;;;;25.78;49.65;100748.28;5054680;28;20048;-64
2022/10/28 12:47:27;;;;;;;7.88;2.30;;;;;;;25.41;51.39;100746.31;5055072;28;20028;-64
2022/10/28 12:50:04;;;;;;;4.63;2.08;;;;;;;25.23;53.26;100743.94;5055002;28;20064;-64
2022/10/28 12:52:39;;;;;;;5.38;2.75;;;;;;;25.29;51.69;100743.72;5053602;28;20037;-64
2022/10/28 12:55:13;;;;;;;7.57;2.50;;;;;;;25.10;52.88;100737.84;5053776;28;20048;-65
2022/10/28 12:58:16;;;;;;;7.57;2.40;;;;;;;25.00;58.63;100748.63;5055060;28;20041;-65
2022/10/28 13:00:50;;;;;;;7.03;2.65;;;;;;;25.00;55.99;100740.44;5054584;28;20045;-65
2022/10/28 13:03:15;;;;;;;6.50;2.85;;;;;;;25.02;56.58;100751.91;5054825;28;20077;-64
2022/10/28 13:05:44;;;;;;;11.25;2.97;;;;;;;25.03;58.17;100758.16;5054700;28;20116;-64
2022/10/28 13:08:40;;;;;;;5.18;2.45;;;;;;;24.93;59.49;100750.72;5054836;28;20049;-53
2022/10/28 13:11:14;;;;;;;6.63;2.47;;;;;;;24.75;58.66;100754.59;5054387;28;20072;-52
2022/10/28 13:14:06;;;;;;;18.92;3.35;;;;;;;24.65;55.11;100743.59;5054596;28;20041;-54
2022/10/28 13:16:34;;;;;;;7.68;2.40;;;;;;;24.50;56.12;100744.22;5054702;28;20037;-55
2022/10/28 13:19:23;;;;;;;4.22;2.05;;;;;;;24.52;59.34;100739.38;5054253;28;20394;-52
2022/10/28 13:21:54;;;;;;;5.13;2.40;;;;;;;24.48;59.75;100743.66;5054245;28;20429;-52
2022/10/28 13:24:45;;;;;;;7.03;2.25;;;;;;;24.38;59.07;100742.69;5054578;28;20163;-53
2022/10/28 13:27:12;;;;;;;4.43;1.98;;;;;;;24.33;55.86;100740.72;5054398;28;20043;-50
2022/10/28 13:29:44;;;;;;;6.07;2.53;;;;;;;24.12;58.40;100741.50;5054266;28;20036;-52
2022/10/28 13:32:30;;;;;;;10.10;2.28;;;;;;;24.16;59.22;100748.09;5054118;28;20099;-50
2022/10/28 13:34:56;;;;;;;11.80;2.03;;;;;;;24.00;58.02;100749.78;5054322;28;20037;-50
2022/10/28 13:37:24;;;;;;;7.20;2.50;;;;;;;23.90;57.11;100755.88;5054249;28;20037;-52
2022/10/28 13:39:49;;;;;;;4.75;2.15;;;;;;;23.77;59.03;100748.06;5054119;28;20372;-51
2022/10/28 13:42:16;;;;;;;7.90;2.67;;;;;;;23.82;61.86;100751.69;5053932;28;20078;-50
2022/10/28 13:45:03;;;;;;;6.70;2.67;;;;;;;23.71;59.77;100762.66;5054103;28;20029;-53
2022/10/28 13:47:36;;;;;;;7.15;3.00;;;;;;;23.78;59.95;100766.03;5054355;28;20033;-50
2022/10/28 13:50:07;;;;;;;4.38;2.40;;;;;;;23.80;60.25;100755.75;5052850;28;20041;-50
2022/10/28 13:52:32;;;;;;;5.38;2.55;;;;;;;23.78;62.63;100752.44;5053759;28;20098;-55
2022/10/28 13:55:24;;;;;;;3.35;2.22;;;;;;;23.78;61.50;100745.09;5053516;28;20079;-51
2022/10/28 13:57:57;;;;;;;5.40;2.25;;;;;;;23.79;61.90;100743.19;5054125;28;20421;-52
2022/10/28 14:00:23;;;;;;;8.45;2.50;;;;;;;23.64;62.01;100746.50;5053594;28;20174;-52
2022/10/28 14:02:53;;;;;;;8.57;2.63;;;;;;;23.72;61.91;100737.09;5053805;28;20435;-55
2022/10/28 14:05:25;;;;;;;5.45;2.33;;;;;;;23.70;65.24;100744.69;5053825;28;20120;-53
2022/10/28 14:08:02;;;;;;;3.88;2.20;;;;;;;23.58;67.52;100742.03;5053766;28;20036;-54
2022/10/28 14:10:29;;;;;;;;;;;;;;;23.46;66.36;100744.81;5053864;28;20089;-50
2022/10/28 14:13:00;;;;;;;;;;;;;;;23.52;68.42;100734.84;5053970;28;19916;-57
2022/10/28 14:15:30;;;;;;;11.38;2.65;;;;;;;23.50;68.19;100740.53;5053436;28;20293;-51
2022/10/28 14:18:04;;;;;;;9.48;2.80;;;;;;;23.40;69.87;100736.81;5053515;28;20041;-51
2022/10/28 14:20:32;;;;;;;8.70;2.92;;;;;;;23.42;69.93;100738.25;5053180;28;20048;-51
2022/10/28 14:22:58;;;;;;;7.38;3.22;;;;;;;23.35;67.12;100743.00;5053446;28;20029;-53
2022/10/28 14:25:44;;;;;;;10.25;3.03;;;;;;;23.32;65.49;100745.38;5053311;28;20064;-50
2022/10/28 14:31:10;;;;;;;6.70;2.53;;;;;;;23.24;67.72;100738.47;5052821;28;20037;-52
2022/10/28 14:33:41;;;;;;;7.82;2.75;;;;;;;23.16;69.42;100739.69;5053268;28;20044;-51
2022/10/28 14:36:06;;;;;;;5.18;2.03;;;;;;;23.08;66.66;100740.06;5053209;28;20574;-51
2022/10/28 14:38:50;;;;;;;9.25;3.85;;;;;;;23.08;68.06;100745.50;5053095;28;20117;-50
2022/10/28 14:41:39;;;;;;;9.65;2.92;;;;;;;23.10;67.59;100732.50;5052846;28;20140;-53
2022/10/28 14:44:04;;;;;;;5.97;2.60;;;;;;;23.05;68.05;100737.03;5053110;28;20546;-51
2022/10/28 14:46:46;;;;;;;9.43;2.97;;;;;;;23.06;67.41;100742.22;5052848;28;20172;-51
2022/10/28 14:49:20;;;;;;;6.05;2.42;;;;;;;22.91;69.55;100728.34;5053151;28;20041;-53
2022/10/28 14:51:50;;;;;;;6.38;2.88;;;;;;;22.97;71.32;100733.63;5052697;28;20067;-52
2022/10/28 14:54:22;;;;;;;7.90;3.22;;;;;;;22.88;72.59;100734.25;5052861;28;20061;-53
2022/10/28 14:56:52;;;;;;;9.35;3.78;;;;;;;22.83;72.30;100743.13;5052717;28;20498;-52
2022/10/28 14:59:23;;;;;;;9.80;3.60;;;;;;;22.77;73.03;100743.25;5052802;28;20632;-55
2022/10/28 15:02:02;;;;;;;12.30;4.45;;;;;;;22.72;73.37;100739.38;5052389;28;20120;-52
2022/10/28 15:04:29;;;;;;;9.70;4.32;;;;;;;22.65;74.40;100741.41;5052479;28;20109;-53
2022/10/28 15:06:54;;;;;;;9.20;4.20;;;;;;;22.57;76.32;100728.22;5051745;28;20517;-52
2022/10/28 15:09:27;;;;;;;10.40;4.95;;;;;;;22.54;76.09;100731.38;5052238;28;20064;-55
2022/10/28 15:12:00;;;;;;;8.32;3.40;;;;;;;22.48;77.03;100732.34;5052107;28;20033;-55
2022/10/28 15:14:32;;;;;;;9.68;3.88;;;;;;;22.43;77.85;100738.53;5052856;28;20029;-58
2022/10/28 15:17:03;;;;;;;7.07;3.40;;;;;;;22.36;79.38;100745.13;5052346;28;20033;-57
2022/10/28 15:19:33;;;;;;;7.07;3.38;;;;;;;22.24;79.92;100733.47;5052399;28;20501;-55
2022/10/28 15:22:17;;;;;;;8.20;3.90;;;;;;;22.19;79.87;100732.31;5051872;28;20439;-58
2022/10/28 15:24:55;;;;;;;6.90;3.33;;;;;;;22.04;82.09;100728.38;5052133;28;20033;-57
2022/10/28 15:27:21;;;;;;;8.38;2.90;;;;;;;21.99;83.34;100725.56;5052028;28;20044;-55
2022/10/28 15:29:48;;;;;;;7.05;2.55;;;;;;;21.79;84.59;100729.47;5051935;28;20385;-53
2022/10/28 15:32:19;;;;;;;7.13;3.08;;;;;;;21.72;86.72;100726.03;5051860;28;20037;-57
2022/10/28 15:34:45;;;;;;;7.38;3.00;;;;;;;21.57;87.95;100728.38;5051926;28;20044;-54
2022/10/28 15:37:16;;;;;;;5.63;2.65;;;;;;;21.46;89.31;100726.50;5051957;28;20466;-57
2022/10/28 15:39:44;;;;;;;8.35;2.67;;;;;;;21.28;89.80;100743.63;5052155;28;20036;-54
2022/10/28 15:42:36;;;;;;;8.98;3.08;;;;;;;21.16;90.32;100740.88;5051619;28;20040;-54
2022/10/28 15:45:02;;;;;;;6.65;2.53;;;;;;;21.01;92.08;100737.75;5052020;28;20033;-54
2022/10/28 15:47:34;;;;;;;6.35;2.90;;;;;;;20.78;93.92;100736.59;5051894;28;20518;-55
2022/10/28 15:50:01;;;;;;;13.23;2.80;;;;;;;20.69;94.02;100753.38;5051796;28;20040;-57
2022/10/28 15:52:32;;;;;;;6.75;2.85;;;;;;;20.50;95.32;100744.47;5051560;28;20040;-53
2022/10/28 15:55:00;;;;;;;7.60;3.20;;;;;;;20.51;95.45;100746.94;5051720;28;20094;-54
2022/10/28 15:57:29;;;;;;;6.65;2.83;;;;;;;20.24;97.08;100740.97;5051506;28;20087;-57
2022/10/28 16:00:18;;;;;;;5.70;2.38;;;;;;;20.11;98.43;100743.81;5051562;28;20048;-57
2022/10/28 16:02:51;;;;;;;8.63;2.63;;;;;;;19.97;98.24;100750.41;5051716;28;20036;-53
2022/10/28 16:05:32;;;;;;;6.03;3.45;;;;;;;19.75;99.65;100753.50;5051294;28;20052;-66
2022/10/28 16:08:13;;;;;;;8.05;3.55;;;;;;;19.63;100.00;100749.88;5051398;28;20033;-65